createdAt,value
2018-10-11T00:00:01.540Z,12.45
2018-10-11T00:02:30.064Z,4.47
2018-10-11T00:04:58.572Z,8.83
2018-10-11T00:07:27.086Z,3.60
2018-10-11T00:09:55.663Z,2.42
2018-10-11T00:12:24.287Z,4.70
2018-10-11T00:14:52.788Z,6.28
2018-10-11T00:17:21.384Z,6.87
2018-10-11T00:19:49.922Z,10.80
2018-10-11T00:22:18.882Z,3.42
2018-10-11T00:24:47.788Z,3.42
2018-10-11T00:27:16.736Z,5.12
2018-10-11T00:29:45.240Z,4.60
2018-10-11T00:32:13.752Z,10.38
2018-10-11T00:34:42.233Z,11.93
2018-10-11T00:37:10.800Z,9.15
2018-10-11T00:39:39.687Z,10.55
2018-10-11T00:42:08.184Z,13.22
2018-10-11T00:44:36.669Z,3.00
2018-10-11T00:47:05.172Z,10.78
2018-10-11T00:49:33.906Z,8.90
2018-10-11T00:52:02.417Z,4.72
2018-10-11T00:54:30.898Z,3.25
2018-10-11T00:56:59.399Z,4.80
2018-10-11T00:59:28.367Z,3.75
2018-10-11T01:01:56.867Z,12.55
2018-10-11T01:04:25.375Z,7.42
2018-10-11T01:06:53.869Z,2.65
2018-10-11T01:09:22.378Z,4.65
2018-10-11T01:11:50.866Z,6.00
2018-10-11T01:14:19.364Z,4.40
2018-10-11T01:16:47.947Z,9.65
2018-10-11T01:19:16.438Z,8.40
2018-10-11T01:21:44.950Z,5.00
2018-10-11T01:24:13.468Z,14.13
2018-10-11T01:26:41.980Z,13.68
2018-10-11T01:29:10.474Z,7.90
2018-10-11T01:31:39.021Z,9.45
2018-10-11T01:34:07.520Z,12.63
2018-10-11T01:36:36.010Z,4.65
2018-10-11T01:39:05.462Z,9.90
2018-10-11T01:41:35.196Z,7.12
2018-10-11T01:44:03.804Z,12.78
2018-10-11T01:46:32.316Z,3.00
2018-10-11T01:49:00.902Z,3.45
2018-10-11T01:51:29.412Z,8.23
2018-10-11T01:53:58.374Z,3.95
2018-10-11T01:56:27.400Z,8.65
2018-10-11T01:58:55.889Z,4.95
2018-10-11T02:01:24.460Z,5.90
2018-10-11T02:03:53.366Z,4.25
2018-10-11T02:06:21.868Z,8.23
2018-10-11T02:08:50.608Z,14.50
2018-10-11T02:11:19.106Z,11.48
2018-10-11T02:13:47.583Z,5.72
2018-10-11T02:16:16.076Z,6.80
2018-10-11T02:18:44.572Z,7.78
2018-10-11T02:21:13.140Z,4.53
2018-10-11T02:23:41.636Z,5.95
2018-10-11T02:26:10.136Z,6.55
2018-10-11T02:28:38.632Z,17.35
2018-10-11T02:31:07.444Z,9.13
2018-10-11T02:33:35.989Z,4.95
2018-10-11T02:36:04.492Z,3.30
2018-10-11T02:38:32.981Z,8.85
2018-10-11T02:41:01.469Z,12.10
2018-10-11T02:43:29.960Z,5.55
2018-10-11T02:45:58.455Z,4.05
2018-10-11T02:48:26.969Z,10.35
2018-10-11T02:50:55.649Z,11.15
2018-10-11T02:53:24.175Z,13.38
2018-10-11T02:55:52.711Z,6.75
2018-10-11T02:58:32.304Z,8.13
2018-10-11T03:01:01.012Z,7.28
2018-10-11T03:03:30.232Z,12.33
2018-10-11T03:06:00.504Z,7.25
2018-10-11T03:08:29.935Z,4.00
2018-10-11T03:10:59.209Z,5.42
2018-10-11T03:13:27.757Z,3.62
2018-10-11T03:15:56.256Z,3.67
2018-10-11T03:18:25.008Z,8.28
2018-10-11T03:20:53.516Z,17.98
2018-10-11T03:23:22.008Z,7.47
2018-10-11T03:25:50.511Z,8.38
2018-10-11T03:28:19.022Z,5.53
2018-10-11T03:30:47.540Z,9.03
2018-10-11T03:33:16.352Z,8.35
2018-10-11T03:35:45.548Z,6.28
2018-10-11T03:38:14.572Z,7.40
2018-10-11T03:40:43.664Z,8.48
2018-10-11T03:43:12.220Z,7.90
2018-10-11T03:45:41.111Z,5.97
2018-10-11T03:48:09.704Z,10.43
2018-10-11T03:50:38.192Z,9.30
2018-10-11T03:53:06.787Z,7.53
2018-10-11T03:55:35.306Z,4.40
2018-10-11T03:58:03.795Z,11.00
2018-10-11T04:00:32.368Z,10.93
2018-10-11T04:03:00.855Z,7.28
2018-10-11T04:05:29.441Z,4.40
2018-10-11T04:07:58.300Z,9.70
2018-10-11T04:10:26.817Z,5.55
2018-10-11T04:12:55.298Z,9.35
2018-10-11T04:15:23.844Z,8.08
2018-10-11T04:17:52.300Z,7.22
2018-10-11T04:20:20.801Z,9.95
2018-10-11T04:22:49.329Z,9.50
2018-10-11T04:25:17.843Z,8.33
2018-10-11T04:27:46.335Z,15.03
2018-10-11T04:30:15.083Z,10.03
2018-10-11T04:32:43.760Z,9.98
2018-10-11T04:35:12.309Z,8.98
2018-10-11T04:37:40.896Z,11.97
2018-10-11T04:40:09.776Z,12.07
2018-10-11T04:42:38.290Z,11.88
2018-10-11T04:45:06.834Z,10.35
2018-10-11T04:47:35.329Z,6.30
2018-10-11T04:50:03.905Z,6.05
2018-10-11T04:52:32.380Z,6.80
2018-10-11T04:55:00.870Z,13.58
2018-10-11T04:57:29.572Z,7.08
2018-10-11T04:59:58.108Z,11.12
2018-10-11T05:02:26.623Z,7.42
2018-10-11T05:04:55.132Z,14.65
2018-10-11T05:07:23.632Z,18.00
2018-10-11T05:09:52.125Z,9.83
2018-10-11T05:12:20.740Z,9.05
2018-10-11T05:14:50.175Z,11.78
2018-10-11T05:17:18.962Z,6.25
2018-10-11T05:19:47.543Z,21.57
2018-10-11T05:22:16.074Z,5.72
2018-10-11T05:24:44.623Z,18.42
2018-10-11T05:27:13.217Z,7.15
2018-10-11T05:29:41.935Z,17.73
2018-10-11T05:32:10.689Z,8.85
2018-10-11T05:34:39.184Z,10.48
2018-10-11T05:37:07.745Z,8.90
2018-10-11T05:39:36.362Z,16.25
2018-10-11T05:42:04.965Z,7.47
2018-10-11T05:44:33.561Z,12.70
2018-10-11T05:47:02.220Z,13.15
2018-10-11T05:49:30.899Z,12.07
2018-10-11T05:51:59.495Z,12.70
2018-10-11T05:54:28.169Z,9.73
2018-10-11T05:56:56.824Z,8.93
2018-10-11T05:59:25.476Z,8.85
2018-10-11T06:01:54.231Z,5.83
2018-10-11T06:04:22.858Z,7.65
2018-10-11T06:08:20.912Z,7.87
2018-10-11T06:10:50.146Z,6.45
2018-10-11T06:13:18.905Z,8.58
2018-10-11T06:15:47.551Z,15.00
2018-10-11T06:18:16.261Z,7.20
2018-10-11T06:20:44.887Z,14.23
2018-10-11T06:23:13.443Z,10.95
2018-10-11T06:25:41.994Z,8.80
2018-10-11T06:28:10.650Z,14.10
2018-10-11T06:30:39.275Z,8.70
2018-10-11T06:33:07.892Z,17.90
2018-10-11T06:35:36.690Z,8.40
2018-10-11T06:38:05.288Z,21.33
2018-10-11T06:40:35.691Z,10.85
2018-10-11T06:43:04.329Z,6.40
2018-10-11T06:45:32.978Z,21.10
2018-10-11T06:48:04.164Z,7.05
2018-10-11T06:50:32.804Z,10.95
2018-10-11T06:53:01.554Z,13.30
2018-10-11T06:55:30.213Z,9.95
2018-10-11T06:57:58.767Z,16.77
2018-10-11T07:00:27.311Z,18.75
2018-10-11T07:02:55.843Z,9.50
2018-10-11T07:05:24.417Z,6.50
2018-10-11T07:07:53.434Z,6.53
2018-10-11T07:10:22.990Z,12.53
2018-10-11T07:12:51.513Z,7.45
2018-10-11T07:15:20.082Z,8.28
2018-10-11T07:17:48.627Z,12.35
2018-10-11T07:20:17.551Z,6.37
2018-10-11T07:22:46.463Z,7.03
2018-10-11T07:25:15.027Z,9.08
2018-10-11T07:27:43.571Z,6.47
2018-10-11T07:30:12.510Z,5.55
2018-10-11T07:32:41.391Z,14.43
2018-10-11T07:35:10.463Z,10.50
2018-10-11T07:37:39.111Z,9.95
2018-10-11T07:40:08.263Z,17.27
2018-10-11T07:42:36.835Z,17.02
2018-10-11T07:45:05.432Z,8.28
2018-10-11T07:47:33.975Z,8.35
2018-10-11T07:50:02.528Z,17.15
2018-10-11T07:52:31.066Z,6.67
2018-10-11T07:54:59.638Z,13.10
2018-10-11T07:57:28.178Z,11.80
2018-10-11T07:59:56.716Z,11.10
2018-10-11T08:02:25.631Z,11.93
2018-10-11T08:04:54.162Z,10.38
2018-10-11T08:07:22.811Z,9.63
2018-10-11T08:09:51.299Z,12.45
2018-10-11T08:12:20.161Z,6.33
2018-10-11T08:14:48.705Z,10.20
2018-10-11T08:17:17.996Z,5.70
2018-10-11T08:19:46.388Z,4.58
2018-10-11T08:22:14.923Z,4.15
2018-10-11T08:24:43.723Z,6.50
2018-10-11T08:27:12.140Z,9.13
2018-10-11T08:29:41.195Z,6.20
2018-10-11T08:32:09.837Z,12.20
2018-10-11T08:34:38.311Z,6.67
2018-10-11T08:37:07.495Z,6.08
2018-10-11T08:39:36.041Z,5.90
2018-10-11T08:42:04.647Z,8.63
2018-10-11T08:44:33.208Z,8.25
2018-10-11T08:47:01.763Z,9.63
2018-10-11T08:49:30.300Z,6.50
2018-10-11T08:51:58.917Z,9.40
2018-10-11T08:54:32.967Z,7.33
2018-10-11T08:57:02.036Z,9.15
2018-10-11T08:59:30.617Z,8.28
2018-10-11T09:01:59.202Z,4.90
2018-10-11T09:04:27.743Z,11.60
2018-10-11T09:06:56.321Z,4.17
2018-10-11T09:09:24.866Z,7.00
2018-10-11T09:11:53.423Z,6.78
2018-10-11T09:14:22.000Z,4.80
2018-10-11T09:16:50.674Z,6.20
2018-10-11T09:19:19.255Z,4.65
2018-10-11T09:21:47.793Z,4.08
2018-10-11T09:24:17.088Z,10.45
2018-10-11T09:26:45.171Z,8.15
2018-10-11T09:29:14.387Z,6.67
2018-10-11T09:31:42.925Z,12.13
2018-10-11T09:34:11.472Z,9.48
2018-10-11T09:36:40.347Z,9.88
2018-10-11T09:39:09.833Z,10.70
2018-10-11T09:41:39.021Z,9.90
2018-10-11T09:44:08.500Z,4.28
2018-10-11T09:49:36.288Z,2.95
2018-10-11T09:52:04.859Z,6.03
2018-10-11T09:54:33.534Z,5.28
2018-10-11T09:57:20.600Z,7.40
2018-10-11T09:59:49.216Z,3.60
2018-10-11T10:02:17.799Z,4.40
2018-10-11T10:04:48.003Z,4.35
2018-10-11T10:07:16.663Z,4.83
2018-10-11T10:09:46.084Z,10.32
2018-10-11T10:12:15.398Z,11.30
2018-10-11T10:14:44.779Z,8.93
2018-10-11T10:17:13.751Z,7.65
2018-10-11T10:19:42.920Z,6.15
2018-10-11T10:22:11.455Z,4.22
2018-10-11T10:24:40.265Z,5.55
2018-10-11T10:27:09.306Z,6.62
2018-10-11T10:29:38.121Z,5.15
2018-10-11T10:32:07.142Z,9.80
2018-10-11T10:34:36.626Z,11.70
2018-10-11T10:37:05.314Z,5.75
2018-10-11T10:39:33.865Z,3.52
2018-10-11T10:42:02.429Z,6.58
2018-10-11T10:44:31.003Z,13.32
2018-10-11T10:46:59.567Z,11.70
2018-10-11T10:49:28.771Z,10.40
2018-10-11T10:51:57.386Z,5.65
2018-10-11T10:54:30.644Z,7.12
2018-10-11T10:56:59.767Z,7.78
2018-10-11T10:59:28.804Z,3.58
2018-10-11T11:01:57.512Z,13.83
2018-10-11T11:04:26.115Z,4.08
2018-10-11T11:06:54.890Z,6.45
2018-10-11T11:09:23.575Z,6.22
2018-10-11T11:11:52.249Z,8.53
2018-10-11T11:14:20.847Z,3.62
2018-10-11T11:16:49.429Z,6.97
2018-10-11T11:19:18.323Z,7.00
2018-10-11T11:21:46.902Z,7.87
2018-10-11T11:24:15.699Z,9.68
2018-10-11T11:26:44.250Z,6.08
2018-10-11T11:29:13.207Z,6.83
2018-10-11T11:31:41.759Z,20.90
2018-10-11T11:34:10.296Z,12.93
2018-10-11T11:36:39.553Z,4.05
2018-10-11T11:39:09.635Z,6.28
2018-10-11T11:41:38.956Z,9.90
2018-10-11T11:44:08.147Z,9.10
2018-10-11T11:46:36.694Z,5.22
2018-10-11T11:49:05.271Z,6.17
2018-10-11T11:51:33.807Z,8.53
2018-10-11T11:54:02.995Z,7.85
2018-10-11T11:56:31.539Z,7.55
2018-10-11T11:59:00.077Z,12.88
2018-10-11T12:01:28.695Z,7.75
2018-10-11T12:03:58.486Z,8.28
2018-10-11T12:06:27.031Z,12.25
2018-10-11T12:08:55.981Z,8.58
2018-10-11T12:11:24.639Z,10.72
2018-10-11T12:13:53.176Z,5.05
2018-10-11T12:16:21.798Z,8.83
2018-10-11T12:18:50.349Z,5.78
2018-10-11T12:21:19.152Z,7.08
2018-10-11T12:23:47.700Z,10.98
2018-10-11T12:26:16.247Z,11.00
2018-10-11T12:28:45.080Z,8.60
2018-10-11T12:31:13.591Z,9.53
2018-10-11T12:33:42.588Z,10.53
2018-10-11T12:36:11.143Z,9.80
2018-10-11T12:38:40.186Z,7.78
2018-10-11T12:41:08.775Z,16.40
2018-10-11T12:43:37.335Z,9.93
2018-10-11T12:46:05.956Z,5.97
2018-10-11T12:48:34.500Z,8.45
2018-10-11T12:51:03.081Z,12.18
2018-10-11T12:53:31.663Z,9.05
2018-10-11T12:56:00.209Z,10.48
2018-10-11T12:58:28.767Z,8.00
2018-10-11T13:00:57.364Z,6.35
2018-10-11T13:03:25.898Z,10.78
2018-10-11T13:05:54.403Z,6.42
2018-10-11T13:08:22.959Z,8.58
2018-10-11T13:10:51.507Z,9.90
2018-10-11T13:13:20.047Z,6.87
2018-10-11T13:15:48.703Z,10.30
2018-10-11T13:18:17.712Z,17.77
2018-10-11T13:20:46.414Z,11.65
2018-10-11T13:23:17.926Z,4.50
2018-10-11T13:25:44.171Z,11.05
2018-10-11T13:28:12.709Z,9.75
2018-10-11T13:30:41.363Z,11.88
2018-10-11T13:33:09.824Z,8.90
2018-10-11T13:35:38.360Z,5.90
2018-10-11T13:38:06.922Z,7.00
2018-10-11T13:40:35.916Z,11.65
2018-10-11T13:43:04.506Z,12.10
2018-10-11T13:45:33.055Z,11.20
2018-10-11T13:48:01.614Z,6.72
2018-10-11T13:50:30.153Z,9.30
2018-10-11T13:52:58.765Z,8.30
2018-10-11T13:55:27.260Z,7.05
2018-10-11T13:57:55.800Z,14.40
2018-10-11T14:00:24.668Z,8.93
2018-10-11T14:02:53.244Z,4.85
2018-10-11T14:05:21.786Z,11.60
2018-10-11T14:07:50.325Z,4.60
2018-10-11T14:10:18.918Z,9.93
2018-10-11T14:12:47.456Z,6.75
2018-10-11T14:15:15.993Z,7.28
2018-10-11T14:17:44.964Z,5.05
2018-10-11T14:20:13.516Z,9.43
2018-10-11T14:22:42.063Z,6.45
2018-10-11T14:25:10.619Z,8.65
2018-10-11T14:27:39.168Z,10.43
2018-10-11T14:30:08.368Z,6.25
2018-10-11T14:32:36.959Z,9.55
2018-10-11T14:35:05.717Z,12.63
2018-10-11T14:37:34.269Z,12.20
2018-10-11T14:40:03.266Z,13.20
2018-10-11T14:42:32.106Z,13.28
2018-10-11T14:45:01.072Z,17.17
2018-10-11T14:47:29.647Z,9.98
2018-10-11T14:49:58.311Z,6.42
2018-10-11T14:52:26.899Z,20.57
2018-10-11T14:54:55.443Z,7.58
2018-10-11T14:57:24.046Z,9.13
2018-10-11T14:59:52.827Z,9.38
2018-10-11T15:02:21.399Z,8.38
2018-10-11T15:04:49.978Z,9.15
2018-10-11T15:07:18.527Z,10.15
2018-10-11T15:09:47.077Z,6.30
2018-10-11T15:12:15.648Z,5.90
2018-10-11T15:14:44.226Z,6.58
2018-10-11T15:17:12.819Z,5.08
2018-10-11T15:19:42.407Z,7.55
2018-10-11T15:22:11.136Z,4.95
2018-10-11T15:24:39.890Z,7.80
2018-10-11T15:27:08.428Z,8.68
2018-10-11T15:29:36.971Z,8.65
2018-10-11T15:32:05.543Z,9.33
2018-10-11T15:34:34.615Z,8.45
2018-10-11T15:37:03.191Z,8.43
2018-10-11T15:39:31.776Z,11.18
2018-10-11T15:42:00.313Z,7.72
2018-10-11T15:44:28.983Z,9.05
2018-10-11T15:46:57.615Z,9.70
2018-10-11T15:49:26.320Z,8.83
2018-10-11T15:51:54.899Z,11.75
2018-10-11T15:54:23.512Z,14.75
2018-10-11T15:56:52.051Z,8.83
2018-10-11T15:59:20.887Z,10.28
2018-10-11T16:01:49.471Z,11.68
2018-10-11T16:04:18.463Z,12.05
2018-10-11T16:06:47.035Z,11.90
2018-10-11T16:09:15.801Z,10.50
2018-10-11T16:11:44.233Z,12.20
2018-10-11T16:14:12.776Z,8.95
2018-10-11T16:16:41.331Z,11.70
2018-10-11T16:19:09.879Z,12.75
2018-10-11T16:21:38.475Z,14.23
2018-10-11T16:24:07.009Z,14.45
2018-10-11T16:26:36.092Z,15.30
2018-10-11T16:29:04.680Z,14.90
2018-10-11T16:31:33.241Z,21.65
2018-10-11T16:34:02.239Z,14.25
2018-10-11T16:36:31.011Z,14.53
2018-10-11T16:38:59.677Z,17.25
2018-10-11T16:41:28.204Z,19.82
2018-10-11T16:43:56.797Z,22.25
2018-10-11T16:46:25.450Z,18.40
2018-10-11T16:48:53.995Z,15.13
2018-10-11T16:51:22.536Z,18.95
2018-10-11T16:53:51.559Z,18.80
2018-10-11T16:56:20.135Z,15.13
2018-10-11T16:58:49.032Z,15.13
2018-10-11T17:01:17.588Z,17.80
2018-10-11T17:03:46.138Z,13.28
2018-10-11T17:06:14.667Z,16.82
2018-10-11T17:08:43.252Z,14.87
2018-10-11T17:11:11.892Z,13.95
2018-10-11T17:13:40.825Z,13.32
2018-10-11T17:16:09.355Z,13.38
2018-10-11T17:18:37.953Z,12.37
2018-10-11T17:21:06.651Z,19.48
2018-10-11T17:23:35.548Z,19.32
2018-10-11T17:26:04.147Z,14.90
2018-10-11T17:28:32.714Z,19.95
2018-10-11T17:31:01.619Z,15.25
2018-10-11T17:33:30.163Z,15.32
2018-10-11T17:35:58.795Z,15.85
2018-10-11T17:38:27.354Z,15.80
2018-10-11T17:40:55.987Z,18.35
2018-10-11T17:43:24.548Z,19.15
2018-10-11T17:45:53.108Z,24.47
2018-10-11T17:48:22.099Z,21.90
2018-10-11T17:50:50.951Z,19.45
2018-10-11T17:53:19.974Z,23.75
2018-10-11T17:55:48.891Z,24.32
2018-10-11T17:58:17.438Z,19.35
2018-10-11T18:00:46.092Z,24.10
2018-10-11T18:03:14.675Z,27.82
2018-10-11T18:05:43.223Z,23.32
2018-10-11T18:08:12.323Z,20.25
2018-10-11T18:10:40.879Z,25.65
2018-10-11T18:13:09.869Z,24.55
2018-10-11T18:15:38.800Z,21.33
2018-10-11T18:18:07.947Z,21.93
2018-10-11T18:20:36.521Z,24.85
2018-10-11T18:23:05.341Z,22.25
2018-10-11T18:25:33.887Z,26.62
2018-10-11T18:28:04.002Z,21.68
2018-10-11T18:30:33.758Z,28.12
2018-10-11T18:33:02.997Z,35.63
2018-10-11T18:35:32.324Z,21.80
2018-10-11T18:38:02.560Z,24.60
2018-10-11T18:40:32.466Z,22.13
2018-10-11T18:43:02.062Z,20.27
2018-10-11T18:45:31.323Z,34.18
2018-10-11T18:48:00.613Z,23.83
2018-10-11T18:50:30.669Z,21.90
2018-10-11T18:52:59.531Z,19.40
2018-10-11T18:55:30.956Z,23.83
2018-10-11T18:57:59.979Z,26.85
2018-10-11T19:00:30.375Z,22.05
2018-10-11T19:02:59.995Z,20.35
2018-10-11T19:05:30.488Z,24.43
2018-10-11T19:08:02.167Z,20.50
2018-10-11T19:10:31.949Z,21.80
2018-10-11T19:13:01.215Z,22.10
2018-10-11T19:15:31.667Z,21.97
2018-10-11T19:18:00.651Z,27.73
2018-10-11T19:20:31.983Z,27.73
2018-10-11T19:23:01.930Z,24.32
2018-10-11T19:25:32.163Z,20.55
2018-10-11T19:28:04.050Z,21.70
2018-10-11T19:30:34.100Z,29.77
2018-10-11T19:33:04.310Z,21.68
2018-10-11T19:35:33.867Z,22.15
2018-10-11T19:38:02.427Z,24.87
2018-10-11T19:40:30.971Z,23.65
2018-10-11T19:42:59.951Z,23.47
2018-10-11T19:45:29.164Z,20.60
2018-10-11T19:47:57.730Z,22.93
2018-10-11T19:50:26.516Z,19.27
2018-10-11T19:52:55.059Z,20.17
2018-10-11T19:55:23.663Z,21.57
2018-10-11T19:57:52.219Z,23.73
2018-10-11T20:00:20.782Z,23.67
2018-10-11T20:02:49.887Z,27.60
2018-10-11T20:05:18.443Z,31.65
2018-10-11T20:07:47.065Z,33.98
2018-10-11T20:10:15.627Z,32.40
2018-10-11T20:12:44.539Z,29.48
2018-10-11T20:15:13.082Z,32.98
2018-10-11T20:17:41.619Z,53.20
2018-10-11T20:20:10.787Z,37.90
2018-10-11T20:22:39.327Z,34.63
2018-10-11T20:25:07.995Z,25.72
2018-10-11T20:27:36.574Z,31.33
2018-10-11T20:30:05.779Z,33.53
2018-10-11T20:32:34.322Z,31.55
2018-10-11T20:35:02.883Z,31.15
2018-10-11T20:37:31.507Z,31.87
2018-10-11T20:40:00.060Z,31.73
2018-10-11T20:42:28.602Z,32.45
2018-10-11T20:44:57.609Z,37.05
2018-10-11T20:47:26.352Z,34.73
2018-10-11T20:49:54.907Z,37.60
2018-10-11T20:52:23.467Z,34.55
2018-10-11T20:54:52.011Z,42.38
2018-10-11T20:57:20.899Z,32.85
2018-10-11T20:59:49.455Z,34.83
2018-10-11T21:02:17.997Z,45.52
2018-10-11T21:04:46.567Z,40.05
2018-10-11T21:07:15.107Z,39.23
2018-10-11T21:09:43.683Z,35.33
2018-10-11T21:12:12.245Z,34.65
2018-10-11T21:14:41.863Z,35.30
2018-10-11T21:17:10.930Z,32.10
2018-10-11T21:19:39.501Z,32.78
2018-10-11T21:22:08.407Z,36.13
2018-10-11T21:24:37.149Z,30.15
2018-10-11T21:27:05.968Z,31.80
2018-10-11T21:29:34.565Z,34.10
2018-10-11T21:32:03.145Z,34.75
2018-10-11T21:34:32.015Z,40.50
2018-10-11T21:37:00.555Z,38.23
2018-10-11T21:39:29.395Z,43.48
2018-10-11T21:41:57.939Z,35.05
2018-10-11T21:44:26.751Z,33.50
2018-10-11T21:46:55.307Z,35.43
2018-10-11T21:49:23.854Z,37.78
2018-10-11T21:51:52.627Z,36.60
2018-10-11T21:54:21.161Z,34.20
2018-10-11T21:56:49.950Z,42.88
2018-10-11T21:59:18.491Z,59.00
2018-10-11T22:01:47.154Z,48.95
2018-10-11T22:04:15.704Z,48.38
2018-10-11T22:06:44.247Z,47.73
2018-10-11T22:09:12.954Z,36.77
2018-10-11T22:11:41.479Z,52.55
2018-10-11T22:14:10.023Z,46.37
2018-10-11T22:16:38.563Z,43.98
2018-10-11T22:19:07.895Z,37.90
2018-10-11T22:21:37.099Z,39.83
2018-10-11T22:24:05.700Z,42.83
2018-10-11T22:26:34.259Z,38.88
2018-10-11T22:29:02.799Z,41.42
2018-10-11T22:31:31.347Z,39.13
2018-10-11T22:34:00.083Z,39.45
2018-10-11T22:36:29.096Z,38.28
2018-10-11T22:38:57.639Z,40.08
2018-10-11T22:41:26.219Z,45.52
2018-10-11T22:43:55.094Z,40.12
2018-10-11T22:46:24.054Z,55.20
2018-10-11T22:48:52.620Z,67.60
2018-10-11T22:51:21.143Z,78.75
2018-10-11T22:53:49.708Z,69.42
2018-10-11T22:56:22.155Z,48.92
2018-10-11T22:58:52.591Z,49.60
2018-10-11T23:01:21.379Z,37.63
2018-10-11T23:03:49.930Z,30.55
2018-10-11T23:06:18.483Z,34.67
2018-10-11T23:08:47.031Z,28.62
2018-10-11T23:11:16.066Z,27.27
2018-10-11T23:13:44.599Z,30.60
2018-10-11T23:16:13.135Z,26.15
2018-10-11T23:18:42.522Z,34.90
2018-10-11T23:21:12.299Z,27.77
2018-10-11T23:23:41.927Z,28.98
2018-10-11T23:26:10.510Z,30.88
2018-10-11T23:28:39.455Z,27.93
2018-10-11T23:31:08.853Z,27.80
2018-10-11T23:33:37.391Z,29.00
2018-10-11T23:36:06.382Z,37.55
2018-10-11T23:38:35.183Z,22.30
2018-10-11T23:41:03.739Z,22.30
2018-10-11T23:43:32.315Z,22.58
2018-10-11T23:46:00.854Z,23.62
2018-10-11T23:48:29.440Z,28.00
2018-10-11T23:50:58.090Z,26.50
2018-10-11T23:53:26.707Z,21.25
2018-10-11T23:55:55.263Z,23.10
2018-10-11T23:58:23.814Z,23.50
